createdAt,value
2018-11-10T00:00:41.528Z,8.79
2018-11-10T00:03:09.742Z,8.82
2018-11-10T00:05:37.914Z,8.86
2018-11-10T00:08:06.219Z,8.94
2018-11-10T00:10:34.396Z,8.90
2018-11-10T00:13:02.662Z,8.93
2018-11-10T00:15:30.902Z,8.84
2018-11-10T00:17:59.218Z,8.84
2018-11-10T00:20:27.335Z,8.92
2018-11-10T00:22:55.666Z,8.74
2018-11-10T00:25:23.842Z,8.76
2018-11-10T00:27:52.050Z,8.79
2018-11-10T00:30:20.194Z,8.64
2018-11-10T00:32:48.461Z,8.51
2018-11-10T00:35:16.722Z,8.49
2018-11-10T00:37:44.924Z,8.29
2018-11-10T00:40:14.353Z,8.35
2018-11-10T00:42:42.996Z,8.40
2018-11-10T00:45:11.406Z,8.46
2018-11-10T00:47:39.704Z,8.45
2018-11-10T00:50:08.631Z,8.37
2018-11-10T00:52:37.253Z,8.28
2018-11-10T00:55:08.195Z,8.32
2018-11-10T00:57:36.427Z,8.22
2018-11-10T01:00:04.991Z,8.24
2018-11-10T01:02:33.300Z,8.32
2018-11-10T01:05:01.501Z,8.24
2018-11-10T01:07:29.923Z,8.17
2018-11-10T01:09:58.151Z,7.94
2018-11-10T01:12:26.317Z,7.91
2018-11-10T01:14:54.489Z,7.96
2018-11-10T01:17:22.708Z,7.97
2018-11-10T01:19:50.859Z,7.94
2018-11-10T01:22:19.304Z,7.90
2018-11-10T01:24:47.422Z,7.93
2018-11-10T01:27:15.597Z,8.01
2018-11-10T01:29:43.761Z,7.95
2018-11-10T01:32:11.877Z,7.90
2018-11-10T01:34:40.068Z,7.92
2018-11-10T01:37:08.191Z,7.89
2018-11-10T01:39:36.400Z,7.87
2018-11-10T01:42:05.509Z,7.85
2018-11-10T01:44:33.695Z,7.80
2018-11-10T01:47:01.816Z,7.88
2018-11-10T01:49:30.034Z,7.87
2018-11-10T01:51:58.229Z,7.79
2018-11-10T01:54:26.609Z,7.77
2018-11-10T01:56:54.794Z,7.82
2018-11-10T01:59:23.692Z,7.78
2018-11-10T02:01:52.049Z,7.72
2018-11-10T02:04:20.162Z,7.73
2018-11-10T02:06:48.395Z,7.87
2018-11-10T02:09:17.028Z,7.77
2018-11-10T02:11:45.218Z,7.71
2018-11-10T02:14:13.518Z,7.73
2018-11-10T02:16:41.808Z,7.63
2018-11-10T02:19:09.972Z,7.65
2018-11-10T02:21:38.194Z,7.66
2018-11-10T02:24:06.340Z,7.64
2018-11-10T02:26:34.534Z,7.59
2018-11-10T02:29:02.788Z,7.65
2018-11-10T02:31:30.967Z,7.66
2018-11-10T02:33:59.133Z,7.67
2018-11-10T02:36:27.247Z,7.74
2018-11-10T02:38:55.470Z,7.73
2018-11-10T02:41:23.587Z,7.65
2018-11-10T02:43:51.711Z,7.75
2018-11-10T02:46:19.837Z,7.69
2018-11-10T02:48:47.938Z,7.56
2018-11-10T02:51:16.126Z,7.50
2018-11-10T02:53:44.233Z,7.48
2018-11-10T02:56:12.401Z,7.36
2018-11-10T02:58:40.621Z,7.30
2018-11-10T03:01:08.946Z,7.35
2018-11-10T03:03:37.021Z,7.30
2018-11-10T03:06:05.214Z,7.33
2018-11-10T03:08:33.471Z,7.38
2018-11-10T03:11:01.762Z,7.30
2018-11-10T03:13:29.921Z,7.35
2018-11-10T03:15:58.079Z,7.25
2018-11-10T03:18:26.186Z,7.16
2018-11-10T03:20:54.277Z,7.31
2018-11-10T03:23:22.417Z,7.26
2018-11-10T03:25:50.589Z,7.42
2018-11-10T03:28:18.805Z,7.47
2018-11-10T03:30:47.066Z,7.33
2018-11-10T03:33:15.166Z,7.34
2018-11-10T03:35:43.319Z,7.40
2018-11-10T03:38:11.780Z,7.38
2018-11-10T03:40:40.023Z,7.29
2018-11-10T03:43:08.206Z,7.25
2018-11-10T03:45:36.369Z,7.24
2018-11-10T03:48:04.670Z,7.18
2018-11-10T03:50:32.823Z,7.20
2018-11-10T03:53:00.938Z,7.21
2018-11-10T03:55:29.075Z,7.25
2018-11-10T03:57:57.764Z,7.25
2018-11-10T04:00:25.994Z,7.33
2018-11-10T04:02:54.082Z,7.32
2018-11-10T04:05:22.517Z,7.43
2018-11-10T04:07:50.800Z,7.43
2018-11-10T04:10:18.915Z,7.53
2018-11-10T04:12:48.006Z,7.60
2018-11-10T04:15:16.232Z,7.66
2018-11-10T04:17:44.356Z,7.68
2018-11-10T04:20:12.587Z,7.54
2018-11-10T04:22:40.684Z,7.47
2018-11-10T04:25:10.244Z,7.53
2018-11-10T04:27:39.360Z,7.55
2018-11-10T04:30:09.172Z,7.54
2018-11-10T04:32:37.344Z,7.51
2018-11-10T04:35:07.387Z,7.39
2018-11-10T04:37:35.745Z,7.26
2018-11-10T04:40:04.366Z,7.46
2018-11-10T04:42:32.522Z,7.44
2018-11-10T04:45:00.808Z,7.34
2018-11-10T04:47:28.942Z,7.29
2018-11-10T04:49:57.186Z,7.43
2018-11-10T04:52:25.278Z,7.30
2018-11-10T04:54:53.422Z,7.27
2018-11-10T04:57:21.528Z,7.47
2018-11-10T04:59:49.674Z,7.35
2018-11-10T05:02:18.597Z,7.29
2018-11-10T05:04:46.789Z,7.31
2018-11-10T05:07:14.926Z,7.18
2018-11-10T05:09:43.067Z,7.22
2018-11-10T05:12:11.819Z,7.29
2018-11-10T05:14:39.998Z,7.24
2018-11-10T05:17:08.139Z,7.23
2018-11-10T05:19:36.349Z,7.24
2018-11-10T05:22:04.590Z,7.36
2018-11-10T05:24:33.327Z,7.34
2018-11-10T05:27:01.580Z,7.40
2018-11-10T05:29:29.761Z,7.27
2018-11-10T05:31:57.903Z,7.34
2018-11-10T05:34:26.059Z,7.32
2018-11-10T05:36:54.311Z,7.32
2018-11-10T05:39:22.470Z,7.38
2018-11-10T05:41:50.571Z,7.40
2018-11-10T05:44:18.788Z,7.31
2018-11-10T05:46:46.931Z,7.35
2018-11-10T05:49:15.566Z,7.48
2018-11-10T05:51:43.666Z,7.40
2018-11-10T05:54:11.912Z,7.40
2018-11-10T05:56:40.191Z,7.41
2018-11-10T05:59:08.758Z,7.44
2018-11-10T06:01:36.948Z,7.52
2018-11-10T06:04:05.366Z,7.51
2018-11-10T06:06:33.508Z,7.56
2018-11-10T06:09:01.861Z,7.41
2018-11-10T06:11:29.940Z,7.31
2018-11-10T06:13:58.217Z,7.41
2018-11-10T06:16:26.338Z,7.36
2018-11-10T06:18:54.505Z,7.38
2018-11-10T06:21:22.646Z,7.37
2018-11-10T06:23:50.749Z,7.36
2018-11-10T06:26:19.193Z,7.38
2018-11-10T06:28:47.499Z,7.47
2018-11-10T06:31:15.673Z,7.48
2018-11-10T06:33:43.894Z,7.48
2018-11-10T06:36:12.683Z,7.41
2018-11-10T06:38:40.906Z,7.58
2018-11-10T06:41:09.166Z,7.54
2018-11-10T06:43:37.412Z,7.64
2018-11-10T06:46:05.686Z,7.72
2018-11-10T06:48:40.756Z,7.68
2018-11-10T06:51:09.027Z,7.64
2018-11-10T06:53:37.561Z,7.78
2018-11-10T06:56:06.121Z,7.78
2018-11-10T06:58:34.241Z,7.78
2018-11-10T07:01:02.436Z,7.74
2018-11-10T07:03:31.066Z,7.68
2018-11-10T07:05:59.138Z,7.77
2018-11-10T07:08:27.467Z,7.77
2018-11-10T07:10:55.609Z,8.01
2018-11-10T07:13:23.771Z,8.08
2018-11-10T07:15:52.015Z,8.06
2018-11-10T07:18:20.151Z,8.16
2018-11-10T07:20:48.345Z,8.33
2018-11-10T07:23:16.550Z,8.37
2018-11-10T07:25:44.693Z,8.52
2018-11-10T07:28:12.887Z,8.60
2018-11-10T07:30:41.347Z,8.57
2018-11-10T07:33:09.529Z,8.71
2018-11-10T07:35:37.747Z,8.86
2018-11-10T07:38:06.049Z,8.99
2018-11-10T07:40:34.424Z,9.18
2018-11-10T07:43:02.606Z,9.27
2018-11-10T07:45:30.929Z,9.29
2018-11-10T07:47:59.147Z,9.52
2018-11-10T07:50:27.276Z,9.39
2018-11-10T07:52:55.424Z,9.63
2018-11-10T07:55:23.598Z,9.77
2018-11-10T07:57:51.834Z,9.75
2018-11-10T08:00:20.080Z,9.86
2018-11-10T08:02:48.356Z,10.02
2018-11-10T08:05:16.810Z,10.02
2018-11-10T08:07:45.084Z,10.04
2018-11-10T08:10:13.899Z,10.18
2018-11-10T08:12:42.280Z,10.25
2018-11-10T08:15:14.395Z,10.34
2018-11-10T08:17:42.604Z,10.35
2018-11-10T08:20:11.350Z,10.43
2018-11-10T08:22:39.663Z,10.49
2018-11-10T08:25:10.611Z,10.61
2018-11-10T08:27:38.786Z,10.61
2018-11-10T08:30:09.633Z,10.75
2018-11-10T08:32:37.834Z,11.03
2018-11-10T08:35:07.892Z,10.99
2018-11-10T08:37:36.120Z,11.09
2018-11-10T08:40:05.347Z,11.00
2018-11-10T08:42:33.623Z,11.27
2018-11-10T08:45:01.845Z,11.64
2018-11-10T08:47:30.310Z,13.92
2018-11-10T08:49:58.930Z,16.58
2018-11-10T08:52:27.339Z,19.20
2018-11-10T08:54:55.530Z,20.25
2018-11-10T08:57:25.402Z,21.60
2018-11-10T08:59:53.600Z,21.52
2018-11-10T09:02:21.775Z,22.54
2018-11-10T09:04:49.959Z,22.76
2018-11-10T09:07:18.758Z,22.00
2018-11-10T09:09:46.994Z,22.34
2018-11-10T09:12:15.121Z,20.96
2018-11-10T09:14:43.605Z,21.46
2018-11-10T09:17:11.807Z,21.38
2018-11-10T09:19:40.001Z,22.86
2018-11-10T09:22:09.360Z,23.91
2018-11-10T09:24:37.614Z,23.41
2018-11-10T09:27:05.939Z,24.77
2018-11-10T09:29:34.342Z,24.48
2018-11-10T09:32:02.543Z,24.79
2018-11-10T09:34:31.477Z,23.71
2018-11-10T09:37:00.066Z,24.41
2018-11-10T09:39:28.276Z,24.90
2018-11-10T09:41:56.950Z,25.60
2018-11-10T09:44:31.959Z,25.16
2018-11-10T09:47:00.385Z,25.87
2018-11-10T09:49:28.662Z,24.95
2018-11-10T09:51:56.939Z,27.28
2018-11-10T09:54:25.256Z,25.55
2018-11-10T09:56:53.491Z,24.61
2018-11-10T09:59:21.668Z,24.89
2018-11-10T10:01:51.107Z,25.00
2018-11-10T10:04:19.384Z,26.70
2018-11-10T10:06:47.906Z,28.68
2018-11-10T10:09:16.254Z,28.43
2018-11-10T10:11:44.658Z,28.44
2018-11-10T10:14:13.279Z,27.44
2018-11-10T10:16:42.259Z,27.83
2018-11-10T10:19:10.442Z,28.20
2018-11-10T10:21:39.006Z,28.27
2018-11-10T10:24:07.494Z,29.50
2018-11-10T10:26:35.814Z,29.45
2018-11-10T10:29:04.602Z,29.30
2018-11-10T10:31:33.119Z,29.51
2018-11-10T10:34:01.411Z,28.93
2018-11-10T10:36:29.644Z,28.34
2018-11-10T10:38:57.986Z,27.04
2018-11-10T10:41:26.423Z,25.93
2018-11-10T10:43:54.698Z,25.05
2018-11-10T10:46:23.047Z,23.05
2018-11-10T10:48:51.489Z,24.80
2018-11-10T10:51:19.571Z,27.29
2018-11-10T10:53:48.013Z,29.42
2018-11-10T10:56:16.348Z,30.01
2018-11-10T10:58:44.644Z,30.15
2018-11-10T11:01:18.952Z,29.07
2018-11-10T11:03:50.111Z,29.17
2018-11-10T11:06:18.315Z,31.30
2018-11-10T11:08:47.380Z,29.99
2018-11-10T11:11:15.671Z,30.71
2018-11-10T11:13:43.854Z,32.14
2018-11-10T11:16:12.211Z,32.49
2018-11-10T11:18:40.429Z,30.43
2018-11-10T11:21:08.587Z,30.45
2018-11-10T11:23:36.785Z,29.41
2018-11-10T11:26:05.441Z,31.29
2018-11-10T11:28:33.617Z,30.54
2018-11-10T11:31:01.807Z,32.19
2018-11-10T11:33:29.997Z,32.84
2018-11-10T11:35:58.182Z,32.43
2018-11-10T11:38:26.365Z,31.65
2018-11-10T11:40:54.609Z,32.10
2018-11-10T11:43:22.699Z,31.22
2018-11-10T11:45:50.893Z,30.46
2018-11-10T11:48:19.070Z,28.81
2018-11-10T11:50:48.074Z,27.01
2018-11-10T11:53:16.265Z,23.74
2018-11-10T11:55:44.607Z,22.00
2018-11-10T11:58:13.450Z,20.39
2018-11-10T12:00:41.477Z,19.87
2018-11-10T12:03:09.676Z,19.75
2018-11-10T12:05:37.840Z,19.25
2018-11-10T12:08:06.009Z,19.06
2018-11-10T12:10:34.312Z,18.53
2018-11-10T12:13:02.545Z,18.02
2018-11-10T12:15:30.863Z,17.80
2018-11-10T12:17:58.993Z,17.73
2018-11-10T12:20:27.138Z,17.93
2018-11-10T12:22:55.330Z,17.85
2018-11-10T12:25:23.540Z,17.67
2018-11-10T12:27:51.710Z,18.07
2018-11-10T12:30:19.938Z,18.26
2018-11-10T12:32:48.056Z,18.26
2018-11-10T12:35:16.318Z,18.21
2018-11-10T12:37:44.655Z,18.02
2018-11-10T12:40:13.608Z,18.15
2018-11-10T12:42:42.043Z,18.23
2018-11-10T12:45:11.527Z,18.28
2018-11-10T12:47:40.268Z,18.11
2018-11-10T12:50:10.494Z,17.56
2018-11-10T12:52:38.915Z,17.42
2018-11-10T12:55:08.048Z,17.21
2018-11-10T12:57:36.180Z,17.29
2018-11-10T13:00:05.433Z,17.07
2018-11-10T13:02:33.645Z,16.82
2018-11-10T13:05:02.068Z,16.93
2018-11-10T13:07:30.271Z,16.87
2018-11-10T13:09:58.519Z,16.91
2018-11-10T13:12:26.719Z,16.88
2018-11-10T13:14:55.611Z,16.85
2018-11-10T13:17:24.922Z,16.75
2018-11-10T13:19:52.993Z,16.62
2018-11-10T13:22:21.988Z,16.57
2018-11-10T13:24:50.225Z,16.72
2018-11-10T13:27:18.630Z,16.72
2018-11-10T13:29:46.873Z,16.67
2018-11-10T13:32:15.082Z,16.62
2018-11-10T13:34:43.330Z,16.53
2018-11-10T13:37:11.522Z,16.54
2018-11-10T13:39:39.682Z,16.62
2018-11-10T13:42:07.933Z,16.56
2018-11-10T13:44:36.172Z,16.39
2018-11-10T13:47:04.510Z,16.42
2018-11-10T13:49:32.691Z,16.40
2018-11-10T13:52:01.518Z,16.43
2018-11-10T13:54:29.574Z,16.42
2018-11-10T13:56:57.814Z,16.13
2018-11-10T13:59:25.964Z,15.99
2018-11-10T14:01:54.202Z,15.99
2018-11-10T14:04:22.467Z,15.97
2018-11-10T14:06:50.711Z,15.96
2018-11-10T14:09:19.126Z,15.88
2018-11-10T14:11:47.706Z,15.85
2018-11-10T14:14:16.069Z,15.75
2018-11-10T14:16:44.253Z,15.73
2018-11-10T14:19:12.882Z,15.65
2018-11-10T14:21:41.118Z,15.64
2018-11-10T14:24:09.320Z,15.55
2018-11-10T14:26:37.510Z,15.62
2018-11-10T14:29:06.390Z,15.59
2018-11-10T14:31:34.673Z,15.54
2018-11-10T14:34:02.858Z,15.47
2018-11-10T14:36:31.165Z,15.39
2018-11-10T14:38:59.508Z,15.38
2018-11-10T14:41:27.717Z,15.28
2018-11-10T14:43:55.838Z,15.09
2018-11-10T14:46:24.058Z,15.13
2018-11-10T14:48:52.239Z,15.09
2018-11-10T14:51:20.432Z,14.92
2018-11-10T14:53:48.736Z,14.82
2018-11-10T14:56:16.953Z,14.90
2018-11-10T14:58:45.245Z,14.78
2018-11-10T15:01:13.908Z,14.74
2018-11-10T15:03:42.094Z,14.71
2018-11-10T15:06:10.285Z,14.62
2018-11-10T15:08:38.460Z,14.46
2018-11-10T15:11:07.465Z,14.41
2018-11-10T15:13:35.625Z,14.33
2018-11-10T15:16:04.431Z,14.28
2018-11-10T15:18:32.697Z,14.31
2018-11-10T15:21:00.913Z,14.13
2018-11-10T15:23:29.083Z,14.11
2018-11-10T15:25:57.243Z,14.00
2018-11-10T15:28:25.437Z,13.95
2018-11-10T15:30:53.671Z,13.93
2018-11-10T15:33:21.839Z,13.84
2018-11-10T15:35:49.993Z,13.72
2018-11-10T15:38:18.127Z,13.70
2018-11-10T15:40:46.268Z,13.65
2018-11-10T15:43:14.489Z,13.55
2018-11-10T15:45:42.885Z,13.51
2018-11-10T15:48:11.039Z,13.40
2018-11-10T15:50:39.232Z,13.32
2018-11-10T15:53:07.419Z,13.34
2018-11-10T15:55:35.598Z,13.36
2018-11-10T15:58:03.821Z,13.25
2018-11-10T16:00:31.982Z,13.27
2018-11-10T16:03:00.152Z,13.20
2018-11-10T16:05:28.323Z,13.26
2018-11-10T16:07:56.514Z,13.29
2018-11-10T16:10:24.806Z,13.35
2018-11-10T16:12:53.940Z,13.46
2018-11-10T16:15:22.116Z,13.52
2018-11-10T16:17:50.277Z,13.56
2018-11-10T16:20:19.497Z,13.48
2018-11-10T16:22:49.833Z,13.44
2018-11-10T16:25:18.375Z,13.41
2018-11-10T16:27:46.828Z,13.36
2018-11-10T16:30:16.261Z,13.29
2018-11-10T16:32:44.729Z,13.20
2018-11-10T16:35:12.971Z,13.18
2018-11-10T16:37:41.623Z,13.14
2018-11-10T16:40:13.871Z,13.17
2018-11-10T16:42:43.163Z,13.20
2018-11-10T16:45:12.082Z,13.25
2018-11-10T16:47:40.270Z,13.35
2018-11-10T16:50:09.164Z,13.18
2018-11-10T16:52:37.534Z,13.18
2018-11-10T16:55:06.532Z,13.08
2018-11-10T16:57:34.649Z,13.05
2018-11-10T17:00:02.869Z,12.97
2018-11-10T17:02:31.148Z,12.98
2018-11-10T17:04:59.371Z,13.05
2018-11-10T17:07:27.562Z,12.95
2018-11-10T17:09:55.709Z,12.95
2018-11-10T17:12:23.879Z,12.80
2018-11-10T17:14:52.095Z,12.80
2018-11-10T17:17:20.266Z,12.66
2018-11-10T17:19:48.443Z,12.57
2018-11-10T17:22:16.739Z,12.57
2018-11-10T17:24:44.838Z,12.51
2018-11-10T17:27:13.155Z,12.60
2018-11-10T17:29:41.364Z,12.54
2018-11-10T17:32:10.107Z,12.47
2018-11-10T17:34:38.333Z,12.35
2018-11-10T17:37:06.568Z,12.20
2018-11-10T17:39:43.524Z,12.16
2018-11-10T17:42:11.816Z,12.16
2018-11-10T17:44:48.024Z,12.10
2018-11-10T17:47:17.351Z,12.06
2018-11-10T17:49:45.777Z,12.11
2018-11-10T17:52:15.655Z,12.19
2018-11-10T17:54:43.828Z,12.16
2018-11-10T17:57:12.891Z,12.05
2018-11-10T17:59:41.080Z,11.97
2018-11-10T18:02:31.826Z,12.14
2018-11-10T18:05:00.090Z,12.08
2018-11-10T18:07:29.035Z,11.96
2018-11-10T18:09:57.829Z,11.84
2018-11-10T18:12:26.522Z,11.96
2018-11-10T18:14:54.915Z,11.89
2018-11-10T18:17:24.129Z,11.81
2018-11-10T18:19:52.412Z,11.78
2018-11-10T18:22:20.645Z,11.86
2018-11-10T18:24:48.773Z,11.84
2018-11-10T18:27:17.636Z,11.76
2018-11-10T18:29:45.835Z,11.77
2018-11-10T18:32:14.072Z,11.65
2018-11-10T18:34:42.470Z,11.63
2018-11-10T18:37:10.655Z,11.68
2018-11-10T18:39:39.007Z,11.66
2018-11-10T18:42:07.155Z,11.80
2018-11-10T18:44:35.340Z,11.85
2018-11-10T18:47:03.620Z,11.87
2018-11-10T18:49:31.864Z,11.80
2018-11-10T18:52:00.143Z,11.91
2018-11-10T18:54:28.336Z,11.89
2018-11-10T18:56:56.634Z,11.91
2018-11-10T18:59:24.889Z,11.93
2018-11-10T19:01:53.196Z,11.92
2018-11-10T19:04:21.457Z,11.90
2018-11-10T19:06:56.743Z,11.94
2018-11-10T19:09:25.089Z,11.93
2018-11-10T19:11:54.093Z,11.94
2018-11-10T19:14:22.527Z,11.79
2018-11-10T19:16:50.725Z,11.74
2018-11-10T19:19:19.043Z,11.61
2018-11-10T19:21:47.266Z,11.77
2018-11-10T19:24:15.477Z,11.63
2018-11-10T19:26:43.713Z,11.67
2018-11-10T19:29:11.927Z,11.76
2018-11-10T19:31:40.237Z,11.77
2018-11-10T19:34:08.509Z,11.65
2018-11-10T19:36:36.825Z,11.62
2018-11-10T19:39:08.222Z,11.56
2018-11-10T19:41:36.559Z,11.67
2018-11-10T19:44:06.913Z,11.75
2018-11-10T19:46:42.058Z,11.57
2018-11-10T19:49:11.321Z,11.50
2018-11-10T19:51:39.653Z,11.54
2018-11-10T19:54:07.898Z,11.62
2018-11-10T19:56:37.304Z,11.51
2018-11-10T19:59:06.475Z,11.56
2018-11-10T20:01:34.687Z,11.48
2018-11-10T20:04:02.947Z,11.47
2018-11-10T20:06:31.136Z,11.47
2018-11-10T20:08:59.391Z,11.50
2018-11-10T20:11:27.751Z,11.46
2018-11-10T20:13:56.473Z,11.51
2018-11-10T20:16:24.567Z,11.44
2018-11-10T20:18:52.786Z,11.44
2018-11-10T20:21:20.989Z,11.31
2018-11-10T20:23:49.770Z,11.43
2018-11-10T20:26:17.952Z,11.38
2018-11-10T20:28:46.176Z,11.38
2018-11-10T20:31:14.378Z,11.38
2018-11-10T20:33:43.153Z,11.27
2018-11-10T20:36:11.336Z,11.20
2018-11-10T20:38:40.140Z,11.10
2018-11-10T20:41:08.314Z,11.08
2018-11-10T20:43:37.150Z,11.17
2018-11-10T20:46:06.019Z,11.17
2018-11-10T20:48:34.406Z,11.15
2018-11-10T20:51:02.765Z,11.16
2018-11-10T20:53:31.231Z,11.18
2018-11-10T20:55:59.777Z,10.96
2018-11-10T20:58:28.026Z,10.98
2018-11-10T21:00:56.941Z,10.90
2018-11-10T21:03:25.164Z,10.91
2018-11-10T21:05:53.474Z,10.87
2018-11-10T21:08:21.673Z,10.83
2018-11-10T21:10:49.978Z,10.76
2018-11-10T21:13:18.261Z,10.66
2018-11-10T21:15:47.315Z,10.71
2018-11-10T21:18:16.215Z,10.51
2018-11-10T21:20:44.523Z,10.55
2018-11-10T21:23:12.779Z,10.60
2018-11-10T21:25:41.023Z,10.60
2018-11-10T21:28:09.207Z,10.51
2018-11-10T21:30:37.494Z,10.50
2018-11-10T21:33:05.848Z,10.61
2018-11-10T21:35:34.234Z,10.62
2018-11-10T21:38:02.328Z,10.46
2018-11-10T21:40:31.302Z,10.36
2018-11-10T21:42:59.525Z,10.44
2018-11-10T21:45:28.475Z,10.47
2018-11-10T21:47:56.775Z,10.46
2018-11-10T21:50:25.503Z,10.45
2018-11-10T21:52:53.728Z,10.44
2018-11-10T21:55:22.018Z,10.48
2018-11-10T21:57:50.217Z,10.50
2018-11-10T22:00:20.007Z,10.60
2018-11-10T22:02:48.572Z,10.42
2018-11-10T22:05:17.215Z,10.45
2018-11-10T22:07:45.440Z,10.47
2018-11-10T22:10:15.923Z,10.37
2018-11-10T22:12:44.343Z,10.36
2018-11-10T22:15:14.072Z,10.29
2018-11-10T22:17:43.048Z,10.35
2018-11-10T22:20:13.558Z,10.26
2018-11-10T22:22:41.850Z,10.13
2018-11-10T22:25:11.669Z,10.00
2018-11-10T22:27:41.227Z,10.18
2018-11-10T22:30:11.785Z,10.18
2018-11-10T22:32:40.312Z,10.06
2018-11-10T22:35:09.604Z,9.99
2018-11-10T22:37:38.134Z,9.93
2018-11-10T22:40:08.788Z,9.96
2018-11-10T22:42:37.825Z,9.88
2018-11-10T22:45:08.164Z,9.97
2018-11-10T22:47:37.615Z,10.06
2018-11-10T22:50:08.944Z,10.10
2018-11-10T22:52:37.257Z,9.98
2018-11-10T22:55:06.068Z,9.97
2018-11-10T22:57:34.290Z,9.98
2018-11-10T23:00:03.127Z,9.93
2018-11-10T23:02:31.341Z,9.91
2018-11-10T23:04:59.554Z,9.91
2018-11-10T23:07:27.699Z,9.79
2018-11-10T23:09:55.935Z,9.88
2018-11-10T23:12:24.162Z,9.85
2018-11-10T23:14:52.325Z,9.75
2018-11-10T23:17:20.590Z,9.82
2018-11-10T23:19:48.671Z,9.66
2018-11-10T23:22:16.867Z,9.70
2018-11-10T23:24:45.021Z,9.72
2018-11-10T23:27:13.197Z,9.62
2018-11-10T23:29:41.355Z,9.59
2018-11-10T23:32:09.537Z,9.61
2018-11-10T23:34:37.638Z,9.75
2018-11-10T23:37:05.877Z,9.61
2018-11-10T23:39:34.069Z,9.54
2018-11-10T23:42:02.268Z,9.62
2018-11-10T23:44:30.425Z,9.50
2018-11-10T23:46:58.561Z,9.51
2018-11-10T23:49:27.344Z,9.47
2018-11-10T23:51:55.555Z,9.52
2018-11-10T23:54:23.705Z,9.44
2018-11-10T23:56:51.863Z,9.48
2018-11-10T23:59:20.081Z,9.28
